sensor_id;sensor_type;location;lat;lon;timestamp;pressure;altitude;pressure_sealevel;temperature;humidity
21658;BME280;10990;48.174;9.782;2024-01-10T00:02:25;95397.09;;;-8.15;100.00
21658;BME280;10990;48.174;9.782;2024-01-10T00:04:50;95392.84;;;-8.16;100.00
21658;BME280;10990;48.174;9.782;2024-01-10T00:07:17;95384.16;;;-8.12;100.00
21658;BME280;10990;48.174;9.782;2024-01-10T00:09:42;95378.13;;;-8.09;100.00
21658;BME280;10990;48.174;9.782;2024-01-10T00:12:11;95378.94;;;-8.09;100.00
21658;BME280;10990;48.174;9.782;2024-01-10T00:14:37;95373.72;;;-8.06;100.00
21658;BME280;10990;48.174;9.782;2024-01-10T00:17:03;95370.13;;;-8.00;100.00
21658;BME280;10990;48.174;9.782;2024-01-10T00:19:29;95373.50;;;-7.98;100.00
21658;BME280;10990;48.174;9.782;2024-01-10T00:21:55;95376.03;;;-7.97;100.00
21658;BME280;10990;48.174;9.782;2024-01-10T00:24:20;95380.47;;;-8.02;100.00
21658;BME280;10990;48.174;9.782;2024-01-10T00:26:46;95381.41;;;-8.06;100.00
21658;BME280;10990;48.174;9.782;2024-01-10T00:29:15;95383.91;;;-8.03;100.00
21658;BME280;10990;48.174;9.782;2024-01-10T00:31:41;95375.25;;;-8.00;100.00
21658;BME280;10990;48.174;9.782;2024-01-10T00:34:07;95375.13;;;-7.96;100.00
21658;BME280;10990;48.174;9.782;2024-01-10T00:36:33;95361.16;;;-7.85;100.00
21658;BME280;10990;48.174;9.782;2024-01-10T00:38:58;95370.47;;;-7.83;100.00
21658;BME280;10990;48.174;9.782;2024-01-10T00:41:24;95364.56;;;-7.85;100.00
21658;BME280;10990;48.174;9.782;2024-01-10T00:43:50;95359.38;;;-7.83;100.00
21658;BME280;10990;48.174;9.782;2024-01-10T00:46:18;95357.53;;;-7.80;100.00
21658;BME280;10990;48.174;9.782;2024-01-10T00:48:44;95361.91;;;-7.82;100.00
21658;BME280;10990;48.174;9.782;2024-01-10T00:51:10;95358.31;;;-7.76;100.00
21658;BME280;10990;48.174;9.782;2024-01-10T00:53:36;95353.72;;;-7.67;100.00
21658;BME280;10990;48.174;9.782;2024-01-10T00:56:02;95350.16;;;-7.62;100.00
21658;BME280;10990;48.174;9.782;2024-01-10T00:58:28;95350.06;;;-7.59;100.00
21658;BME280;10990;48.174;9.782;2024-01-10T01:00:54;95350.91;;;-7.59;100.00
21658;BME280;10990;48.174;9.782;2024-01-10T01:03:22;95338.69;;;-7.52;100.00
21658;BME280;10990;48.174;9.782;2024-01-10T01:05:48;95330.03;;;-7.48;100.00
21658;BME280;10990;48.174;9.782;2024-01-10T01:08:14;95331.91;;;-7.53;100.00
21658;BME280;10990;48.174;9.782;2024-01-10T01:10:40;95327.50;;;-7.50;100.00
21658;BME280;10990;48.174;9.782;2024-01-10T01:13:06;95351.34;;;-7.73;100.00
21658;BME280;10990;48.174;9.782;2024-01-10T01:15:32;95349.66;;;-7.74;100.00
21658;BME280;10990;48.174;9.782;2024-01-10T01:17:58;95328.69;;;-7.60;100.00
21658;BME280;10990;48.174;9.782;2024-01-10T01:20:26;95319.78;;;-7.50;100.00
21658;BME280;10990;48.174;9.782;2024-01-10T01:22:52;95320.69;;;-7.51;100.00
21658;BME280;10990;48.174;9.782;2024-01-10T01:25:18;95321.63;;;-7.53;100.00
21658;BME280;10990;48.174;9.782;2024-01-10T01:27:44;95319.75;;;-7.48;100.00
21658;BME280;10990;48.174;9.782;2024-01-10T01:30:11;95309.03;;;-7.34;100.00
21658;BME280;10990;48.174;9.782;2024-01-10T01:32:37;95308.72;;;-7.25;100.00
21658;BME280;10990;48.174;9.782;2024-01-10T01:35:04;95306.00;;;-7.20;100.00
21658;BME280;10990;48.174;9.782;2024-01-10T01:37:32;95305.94;;;-7.19;100.00
21658;BME280;10990;48.174;9.782;2024-01-10T01:39:58;95305.03;;;-7.18;100.00
21658;BME280;10990;48.174;9.782;2024-01-10T01:42:24;95298.06;;;-7.14;100.00
21658;BME280;10990;48.174;9.782;2024-01-10T01:44:50;95294.59;;;-7.13;100.00
21658;BME280;10990;48.174;9.782;2024-01-10T01:47:16;95288.38;;;-7.06;100.00
21658;BME280;10990;48.174;9.782;2024-01-10T01:49:42;95291.09;;;-7.11;100.00
21658;BME280;10990;48.174;9.782;2024-01-10T01:52:08;95299.97;;;-7.19;100.00
21658;BME280;10990;48.174;9.782;2024-01-10T01:54:37;95290.50;;;-7.19;100.00
21658;BME280;10990;48.174;9.782;2024-01-10T01:57:04;95294.75;;;-7.18;100.00
21658;BME280;10990;48.174;9.782;2024-01-10T01:59:30;95293.09;;;-7.19;100.00
21658;BME280;10990;48.174;9.782;2024-01-10T02:01:57;95293.34;;;-7.27;100.00
21658;BME280;10990;48.174;9.782;2024-01-10T02:04:27;95289.91;;;-7.26;100.00
21658;BME280;10990;48.174;9.782;2024-01-10T02:06:54;95279.16;;;-7.12;100.00
21658;BME280;10990;48.174;9.782;2024-01-10T02:09:20;95270.38;;;-7.06;100.00
21658;BME280;10990;48.174;9.782;2024-01-10T02:11:48;95268.75;;;-7.09;100.00
21658;BME280;10990;48.174;9.782;2024-01-10T02:14:15;95263.66;;;-7.10;100.00
21658;BME280;10990;48.174;9.782;2024-01-10T02:16:41;95266.22;;;-7.10;100.00
21658;BME280;10990;48.174;9.782;2024-01-10T02:19:20;95259.19;;;-7.05;100.00
21658;BME280;10990;48.174;9.782;2024-01-10T02:21:46;95251.34;;;-7.01;100.00
21658;BME280;10990;48.174;9.782;2024-01-10T02:24:12;95247.91;;;-7.01;100.00
21658;BME280;10990;48.174;9.782;2024-01-10T02:26:41;95246.91;;;-6.97;100.00
21658;BME280;10990;48.174;9.782;2024-01-10T02:29:07;95243.19;;;-6.88;100.00
21658;BME280;10990;48.174;9.782;2024-01-10T02:31:33;95247.16;;;-7.03;100.00
21658;BME280;10990;48.174;9.782;2024-01-10T02:33:59;95246.31;;;-7.04;100.00
21658;BME280;10990;48.174;9.782;2024-01-10T02:36:25;95236.06;;;-7.05;100.00
21658;BME280;10990;48.174;9.782;2024-01-10T02:38:51;95247.16;;;-7.03;100.00
21658;BME280;10990;48.174;9.782;2024-01-10T02:41:17;95248.91;;;-7.05;100.00
21658;BME280;10990;48.174;9.782;2024-01-10T02:43:45;95235.25;;;-7.06;100.00
21658;BME280;10990;48.174;9.782;2024-01-10T02:46:11;95239.59;;;-7.08;100.00
21658;BME280;10990;48.174;9.782;2024-01-10T02:48:40;95228.22;;;-7.01;100.00
21658;BME280;10990;48.174;9.782;2024-01-10T02:51:06;95237.84;;;-7.07;100.00
21658;BME280;10990;48.174;9.782;2024-01-10T02:53:32;95238.75;;;-7.08;100.00
21658;BME280;10990;48.174;9.782;2024-01-10T02:55:58;95233.63;;;-7.08;100.00
21658;BME280;10990;48.174;9.782;2024-01-10T02:58:24;95227.25;;;-6.98;100.00
21658;BME280;10990;48.174;9.782;2024-01-10T03:00:53;95221.25;;;-6.99;100.00
21658;BME280;10990;48.174;9.782;2024-01-10T03:03:19;95217.06;;;-7.01;100.00
21658;BME280;10990;48.174;9.782;2024-01-10T03:05:45;95219.56;;;-6.98;100.00
21658;BME280;10990;48.174;9.782;2024-01-10T03:08:11;95218.81;;;-7.02;100.00
21658;BME280;10990;48.174;9.782;2024-01-10T03:10:37;95216.63;;;-6.89;100.00
21658;BME280;10990;48.174;9.782;2024-01-10T03:13:03;95212.28;;;-6.87;100.00
21658;BME280;10990;48.174;9.782;2024-01-10T03:15:29;95213.16;;;-6.88;100.00
21658;BME280;10990;48.174;9.782;2024-01-10T03:17:57;95208.03;;;-6.88;100.00
21658;BME280;10990;48.174;9.782;2024-01-10T03:20:23;95210.66;;;-6.89;100.00
21658;BME280;10990;48.174;9.782;2024-01-10T03:22:49;95214.91;;;-6.88;100.00
21658;BME280;10990;48.174;9.782;2024-01-10T03:25:15;95209.88;;;-6.91;100.00
21658;BME280;10990;48.174;9.782;2024-01-10T03:27:41;95211.38;;;-6.86;100.00
21658;BME280;10990;48.174;9.782;2024-01-10T03:30:08;95210.66;;;-6.89;100.00
21658;BME280;10990;48.174;9.782;2024-01-10T03:32:34;95206.28;;;-6.87;100.00
21658;BME280;10990;48.174;9.782;2024-01-10T03:35:03;95202.66;;;-6.82;100.00
21658;BME280;10990;48.174;9.782;2024-01-10T03:37:30;95196.44;;;-6.76;100.00
21658;BME280;10990;48.174;9.782;2024-01-10T03:39:55;95198.06;;;-6.73;100.00
21658;BME280;10990;48.174;9.782;2024-01-10T03:42:21;95192.81;;;-6.70;100.00
21658;BME280;10990;48.174;9.782;2024-01-10T03:44:47;95190.44;;;-6.75;100.00
21658;BME280;10990;48.174;9.782;2024-01-10T03:47:13;95179.81;;;-6.67;100.00
21658;BME280;10990;48.174;9.782;2024-01-10T03:49:39;95177.09;;;-6.63;100.00
21658;BME280;10990;48.174;9.782;2024-01-10T03:52:08;95180.38;;;-6.59;100.00
21658;BME280;10990;48.174;9.782;2024-01-10T03:54:34;95183.63;;;-6.54;100.00
21658;BME280;10990;48.174;9.782;2024-01-10T03:56:59;95185.03;;;-6.69;100.00
21658;BME280;10990;48.174;9.782;2024-01-10T03:59:25;95175.31;;;-6.61;100.00
21658;BME280;10990;48.174;9.782;2024-01-10T04:01:51;95169.34;;;-6.61;100.00
21658;BME280;10990;48.174;9.782;2024-01-10T04:04:17;95166.56;;;-6.57;100.00
21658;BME280;10990;48.174;9.782;2024-01-10T04:06:43;95174.75;;;-6.69;100.00
21658;BME280;10990;48.174;9.782;2024-01-10T04:09:12;95179.13;;;-6.71;100.00
21658;BME280;10990;48.174;9.782;2024-01-10T04:11:38;95175.84;;;-6.74;100.00
21658;BME280;10990;48.174;9.782;2024-01-10T04:14:04;95170.69;;;-6.74;100.00
21658;BME280;10990;48.174;9.782;2024-01-10T04:16:29;95172.03;;;-6.64;100.00
21658;BME280;10990;48.174;9.782;2024-01-10T04:18:55;95167.31;;;-6.53;100.00
21658;BME280;10990;48.174;9.782;2024-01-10T04:21:21;95173.72;;;-6.65;100.00
21658;BME280;10990;48.174;9.782;2024-01-10T04:23:47;95154.50;;;-6.55;100.00
21658;BME280;10990;48.174;9.782;2024-01-10T04:26:16;95156.34;;;-6.58;100.00
21658;BME280;10990;48.174;9.782;2024-01-10T04:28:42;95152.88;;;-6.57;100.00
21658;BME280;10990;48.174;9.782;2024-01-10T04:31:08;95148.88;;;-6.64;100.00
21658;BME280;10990;48.174;9.782;2024-01-10T04:33:34;95148.50;;;-6.55;100.00
21658;BME280;10990;48.174;9.782;2024-01-10T04:36:00;95139.72;;;-6.49;100.00
21658;BME280;10990;48.174;9.782;2024-01-10T04:38:26;95134.28;;;-6.42;100.00
21658;BME280;10990;48.174;9.782;2024-01-10T04:40:52;95091.31;;;-6.40;100.00
21658;BME280;10990;48.174;9.782;2024-01-10T04:43:20;95093.13;;;-6.42;100.00
21658;BME280;10990;48.174;9.782;2024-01-10T04:45:46;95089.69;;;-6.42;100.00
21658;BME280;10990;48.174;9.782;2024-01-10T04:48:12;95098.38;;;-6.45;100.00
21658;BME280;10990;48.174;9.782;2024-01-10T04:50:38;95095.03;;;-6.47;100.00
21658;BME280;10990;48.174;9.782;2024-01-10T04:53:04;95086.94;;;-6.38;100.00
21658;BME280;10990;48.174;9.782;2024-01-10T04:55:30;95083.59;;;-6.40;100.00
21658;BME280;10990;48.174;9.782;2024-01-10T04:57:56;95075.69;;;-6.35;100.00
21658;BME280;10990;48.174;9.782;2024-01-10T05:00:26;95072.09;;;-6.31;100.00
21658;BME280;10990;48.174;9.782;2024-01-10T05:02:52;95082.75;;;-6.40;100.00
21658;BME280;10990;48.174;9.782;2024-01-10T05:05:18;95073.00;;;-6.32;100.00
21658;BME280;10990;48.174;9.782;2024-01-10T05:07:44;95072.69;;;-6.24;100.00
21658;BME280;10990;48.174;9.782;2024-01-10T05:10:10;95068.41;;;-6.25;100.00
21658;BME280;10990;48.174;9.782;2024-01-10T05:12:36;95069.28;;;-6.25;100.00
21658;BME280;10990;48.174;9.782;2024-01-10T05:15:02;95061.56;;;-6.25;100.00
21658;BME280;10990;48.174;9.782;2024-01-10T05:17:30;95053.56;;;-6.19;100.00
21658;BME280;10990;48.174;9.782;2024-01-10T05:19:56;95066.44;;;-6.19;100.00
21658;BME280;10990;48.174;9.782;2024-01-10T05:22:22;95066.63;;;-6.23;100.00
21658;BME280;10990;48.174;9.782;2024-01-10T05:24:48;95056.50;;;-6.28;100.00
21658;BME280;10990;48.174;9.782;2024-01-10T05:27:14;95058.00;;;-6.22;100.00
21658;BME280;10990;48.174;9.782;2024-01-10T05:29:39;95060.66;;;-6.24;100.00
21658;BME280;10990;48.174;9.782;2024-01-10T05:32:05;95051.06;;;-6.20;100.00
21658;BME280;10990;48.174;9.782;2024-01-10T05:34:34;95062.66;;;-6.30;100.00
21658;BME280;10990;48.174;9.782;2024-01-10T05:37:00;95063.34;;;-6.27;100.00
21658;BME280;10990;48.174;9.782;2024-01-10T05:39:26;95059.59;;;-6.20;100.00
21658;BME280;10990;48.174;9.782;2024-01-10T05:41:52;95068.38;;;-6.24;100.00
21658;BME280;10990;48.174;9.782;2024-01-10T05:44:18;95068.81;;;-6.14;100.00
21658;BME280;10990;48.174;9.782;2024-01-10T05:46:43;95075.25;;;-6.24;100.00
21658;BME280;10990;48.174;9.782;2024-01-10T05:49:09;95059.84;;;-6.05;100.00
21658;BME280;10990;48.174;9.782;2024-01-10T05:51:38;95067.59;;;-6.26;100.00
21658;BME280;10990;48.174;9.782;2024-01-10T05:54:04;95058.59;;;-6.16;100.00
21658;BME280;10990;48.174;9.782;2024-01-10T05:56:30;95041.00;;;-6.06;100.00
21658;BME280;10990;48.174;9.782;2024-01-10T05:58:56;95039.88;;;-5.99;100.00
21658;BME280;10990;48.174;9.782;2024-01-10T06:01:21;95040.84;;;-6.01;100.00
21658;BME280;10990;48.174;9.782;2024-01-10T06:03:47;95041.09;;;-6.07;100.00
21658;BME280;10990;48.174;9.782;2024-01-10T06:06:13;95047.22;;;-6.10;100.00
21658;BME280;10990;48.174;9.782;2024-01-10T06:08:42;95048.03;;;-6.10;100.00
21658;BME280;10990;48.174;9.782;2024-01-10T06:11:07;95046.38;;;-6.11;100.00
21658;BME280;10990;48.174;9.782;2024-01-10T06:13:33;95041.09;;;-6.07;100.00
21658;BME280;10990;48.174;9.782;2024-01-10T06:15:59;95050.09;;;-6.18;100.00
21658;BME280;10990;48.174;9.782;2024-01-10T06:18:25;95039.22;;;-6.04;100.00
21658;BME280;10990;48.174;9.782;2024-01-10T06:20:51;95043.59;;;-6.06;100.00
21658;BME280;10990;48.174;9.782;2024-01-10T06:23:17;95040.88;;;-6.03;100.00
21658;BME280;10990;48.174;9.782;2024-01-10T06:25:45;95041.09;;;-6.07;100.00
21658;BME280;10990;48.174;9.782;2024-01-10T06:28:11;95036.69;;;-6.05;100.00
21658;BME280;10990;48.174;9.782;2024-01-10T06:30:37;95041.22;;;-6.11;100.00
21658;BME280;10990;48.174;9.782;2024-01-10T06:33:04;95033.16;;;-6.03;100.00
21658;BME280;10990;48.174;9.782;2024-01-10T06:35:30;95031.38;;;-6.01;100.00
21658;BME280;10990;48.174;9.782;2024-01-10T06:37:55;95045.47;;;-6.10;100.00
21658;BME280;10990;48.174;9.782;2024-01-10T06:40:21;95042.75;;;-6.06;100.00
21658;BME280;10990;48.174;9.782;2024-01-10T06:42:50;95040.06;;;-6.03;100.00
21658;BME280;10990;48.174;9.782;2024-01-10T06:45:16;95050.66;;;-6.11;100.00
21658;BME280;10990;48.174;9.782;2024-01-10T06:47:42;95050.94;;;-6.17;100.00
21658;BME280;10990;48.174;9.782;2024-01-10T06:50:08;95043.97;;;-6.15;100.00
21658;BME280;10990;48.174;9.782;2024-01-10T06:52:34;95051.75;;;-6.17;100.00
21658;BME280;10990;48.174;9.782;2024-01-10T06:55:00;95059.47;;;-6.17;100.00
21658;BME280;10990;48.174;9.782;2024-01-10T06:57:26;95062.19;;;-6.20;100.00
21658;BME280;10990;48.174;9.782;2024-01-10T06:59:55;95049.78;;;-6.10;100.00
21658;BME280;10990;48.174;9.782;2024-01-10T07:02:20;95050.34;;;-6.03;100.00
21658;BME280;10990;48.174;9.782;2024-01-10T07:04:48;95050.84;;;-5.95;100.00
21658;BME280;10990;48.174;9.782;2024-01-10T07:07:14;95046.84;;;-5.82;100.00
21658;BME280;10990;48.174;9.782;2024-01-10T07:09:40;95042.50;;;-5.81;100.00
21658;BME280;10990;48.174;9.782;2024-01-10T07:12:06;95050.28;;;-5.83;100.00
21658;BME280;10990;48.174;9.782;2024-01-10T07:14:32;95065.19;;;-5.90;100.00
21658;BME280;10990;48.174;9.782;2024-01-10T07:17:01;95058.00;;;-5.83;100.00
21658;BME280;10990;48.174;9.782;2024-01-10T07:19:27;95071.09;;;-5.88;100.00
21658;BME280;10990;48.174;9.782;2024-01-10T07:21:52;95061.59;;;-5.86;100.00
21658;BME280;10990;48.174;9.782;2024-01-10T07:24:18;95068.88;;;-5.95;100.00
21658;BME280;10990;48.174;9.782;2024-01-10T07:26:44;95070.28;;;-5.88;100.00
21658;BME280;10990;48.174;9.782;2024-01-10T07:29:10;95070.28;;;-5.88;100.00
21658;BME280;10990;48.174;9.782;2024-01-10T07:31:36;95070.88;;;-5.83;100.00
21658;BME280;10990;48.174;9.782;2024-01-10T07:34:04;95068.41;;;-5.84;100.00
21658;BME280;10990;48.174;9.782;2024-01-10T07:36:31;95075.22;;;-5.83;100.00
21658;BME280;10990;48.174;9.782;2024-01-10T07:38:56;95073.13;;;-5.75;100.00
21658;BME280;10990;48.174;9.782;2024-01-10T07:41:22;95083.25;;;-5.71;100.00
21658;BME280;10990;48.174;9.782;2024-01-10T07:43:49;95080.16;;;-5.79;100.00
21658;BME280;10990;48.174;9.782;2024-01-10T07:46:15;95086.97;;;-5.78;100.00
21658;BME280;10990;48.174;9.782;2024-01-10T07:48:41;95088.41;;;-5.71;100.00
21658;BME280;10990;48.174;9.782;2024-01-10T07:51:10;95097.66;;;-5.67;100.00
21658;BME280;10990;48.174;9.782;2024-01-10T07:53:36;95098.13;;;-5.57;100.00
21658;BME280;10990;48.174;9.782;2024-01-10T07:56:02;95094.34;;;-5.50;100.00
21658;BME280;10990;48.174;9.782;2024-01-10T07:58:28;95095.81;;;-5.44;100.00
21658;BME280;10990;48.174;9.782;2024-01-10T08:00:54;95095.00;;;-5.45;100.00
21658;BME280;10990;48.174;9.782;2024-01-10T08:03:20;95100.16;;;-5.45;100.00
21658;BME280;10990;48.174;9.782;2024-01-10T08:05:46;95095.97;;;-5.47;100.00
21658;BME280;10990;48.174;9.782;2024-01-10T08:08:15;95108.84;;;-5.47;100.00
21658;BME280;10990;48.174;9.782;2024-01-10T08:10:41;95105.56;;;-5.51;100.00
21658;BME280;10990;48.174;9.782;2024-01-10T08:13:08;95097.53;;;-5.43;100.00
21658;BME280;10990;48.174;9.782;2024-01-10T08:15:35;95093.53;;;-5.50;100.00
21658;BME280;10990;48.174;9.782;2024-01-10T08:18:01;95098.03;;;-5.35;100.00
21658;BME280;10990;48.174;9.782;2024-01-10T08:20:27;95092.09;;;-5.37;100.00
21658;BME280;10990;48.174;9.782;2024-01-10T08:22:53;95095.91;;;-5.27;100.00
21658;BME280;10990;48.174;9.782;2024-01-10T08:25:22;95095.25;;;-5.11;100.00
21658;BME280;10990;48.174;9.782;2024-01-10T08:27:48;95095.09;;;-5.08;100.00
21658;BME280;10990;48.174;9.782;2024-01-10T08:30:14;95117.03;;;-5.19;100.00
21658;BME280;10990;48.174;9.782;2024-01-10T08:32:40;95110.72;;;-5.11;100.00
21658;BME280;10990;48.174;9.782;2024-01-10T08:35:07;95103.66;;;-5.08;100.00
21658;BME280;10990;48.174;9.782;2024-01-10T08:37:33;95109.50;;;-5.04;100.00
21658;BME280;10990;48.174;9.782;2024-01-10T08:39:59;95113.34;;;-5.13;100.00
21658;BME280;10990;48.174;9.782;2024-01-10T08:42:28;95123.78;;;-5.16;100.00
21658;BME280;10990;48.174;9.782;2024-01-10T08:44:54;95123.09;;;-5.20;100.00
21658;BME280;10990;48.174;9.782;2024-01-10T08:47:21;95119.06;;;-5.06;100.00
21658;BME280;10990;48.174;9.782;2024-01-10T08:49:48;95112.84;;;-5.02;100.00
21658;BME280;10990;48.174;9.782;2024-01-10T08:52:14;95122.34;;;-5.03;100.00
21658;BME280;10990;48.174;9.782;2024-01-10T08:54:41;95111.06;;;-4.81;100.00
21658;BME280;10990;48.174;9.782;2024-01-10T08:57:07;95110.97;;;-4.80;100.00
21658;BME280;10990;48.174;9.782;2024-01-10T08:59:36;95118.91;;;-4.84;100.00
21658;BME280;10990;48.174;9.782;2024-01-10T09:02:02;95134.53;;;-4.87;100.00
21658;BME280;10990;48.174;9.782;2024-01-10T09:04:28;95141.69;;;-5.13;100.00
21658;BME280;10990;48.174;9.782;2024-01-10T09:06:54;95140.19;;;-4.98;100.00
21658;BME280;10990;48.174;9.782;2024-01-10T09:09:20;95138.50;;;-4.80;100.00
21658;BME280;10990;48.174;9.782;2024-01-10T09:11:46;95127.63;;;-4.68;100.00
21658;BME280;10990;48.174;9.782;2024-01-10T09:14:12;95133.84;;;-4.53;100.00
21658;BME280;10990;48.174;9.782;2024-01-10T09:16:40;95137.66;;;-4.62;100.00
21658;BME280;10990;48.174;9.782;2024-01-10T09:19:06;95131.66;;;-4.43;100.00
21658;BME280;10990;48.174;9.782;2024-01-10T09:21:32;95137.56;;;-4.41;100.00
21658;BME280;10990;48.174;9.782;2024-01-10T09:23:58;95135.88;;;-4.42;100.00
21658;BME280;10990;48.174;9.782;2024-01-10T09:26:24;95143.16;;;-4.51;100.00
21658;BME280;10990;48.174;9.782;2024-01-10T09:28:50;95137.41;;;-4.19;100.00
21658;BME280;10990;48.174;9.782;2024-01-10T09:31:15;95152.97;;;-4.40;100.00
21658;BME280;10990;48.174;9.782;2024-01-10T09:33:44;95134.06;;;-4.04;100.00
21658;BME280;10990;48.174;9.782;2024-01-10T09:36:10;95139.38;;;-3.90;100.00
21658;BME280;10990;48.174;9.782;2024-01-10T09:38:36;95146.09;;;-3.86;100.00
21658;BME280;10990;48.174;9.782;2024-01-10T09:41:04;95120.84;;;-3.12;100.00
21658;BME280;10990;48.174;9.782;2024-01-10T09:43:31;95115.78;;;-2.66;100.00
21658;BME280;10990;48.174;9.782;2024-01-10T09:45:58;95133.25;;;-2.70;100.00
21658;BME280;10990;48.174;9.782;2024-01-10T09:48:26;95167.34;;;-2.79;100.00
21658;BME280;10990;48.174;9.782;2024-01-10T09:50:56;95171.72;;;-2.64;100.00
21658;BME280;10990;48.174;9.782;2024-01-10T09:53:23;95217.91;;;-3.23;100.00
21658;BME280;10990;48.174;9.782;2024-01-10T09:55:49;95237.75;;;-3.23;100.00
21658;BME280;10990;48.174;9.782;2024-01-10T09:58:16;95256.00;;;-3.44;100.00
21658;BME280;10990;48.174;9.782;2024-01-10T10:00:43;95252.25;;;-3.38;100.00
21658;BME280;10990;48.174;9.782;2024-01-10T10:03:11;95257.44;;;-3.38;100.00
21658;BME280;10990;48.174;9.782;2024-01-10T10:05:39;95263.38;;;-3.19;100.00
21658;BME280;10990;48.174;9.782;2024-01-10T10:08:11;95278.66;;;-3.14;100.00
21658;BME280;10990;48.174;9.782;2024-01-10T10:10:37;95263.28;;;-2.82;100.00
21658;BME280;10990;48.174;9.782;2024-01-10T10:13:04;95282.81;;;-2.77;100.00
21658;BME280;10990;48.174;9.782;2024-01-10T10:15:30;95324.47;;;-3.16;100.00
21658;BME280;10990;48.174;9.782;2024-01-10T10:17:57;95330.56;;;-3.17;100.00
21658;BME280;10990;48.174;9.782;2024-01-10T10:20:24;95349.97;;;-3.45;100.00
21658;BME280;10990;48.174;9.782;2024-01-10T10:23:00;95363.69;;;-3.43;100.00
21658;BME280;10990;48.174;9.782;2024-01-10T10:25:33;95371.09;;;-3.54;100.00
21658;BME280;10990;48.174;9.782;2024-01-10T10:28:00;95379.53;;;-3.50;100.00
21658;BME280;10990;48.174;9.782;2024-01-10T10:30:27;95391.22;;;-3.79;100.00
21658;BME280;10990;48.174;9.782;2024-01-10T10:32:54;95384.31;;;-3.79;100.00
21658;BME280;10990;48.174;9.782;2024-01-10T10:35:20;95378.56;;;-3.67;100.00
21658;BME280;10990;48.174;9.782;2024-01-10T10:37:47;95387.88;;;-3.81;100.00
21658;BME280;10990;48.174;9.782;2024-01-10T10:40:13;95376.63;;;-3.62;100.00
21658;BME280;10990;48.174;9.782;2024-01-10T10:42:44;95388.69;;;-3.81;100.00
21658;BME280;10990;48.174;9.782;2024-01-10T10:45:14;95367.59;;;-3.53;100.00
21658;BME280;10990;48.174;9.782;2024-01-10T10:47:41;95356.78;;;-3.25;100.00
21658;BME280;10990;48.174;9.782;2024-01-10T10:50:12;95352.28;;;-3.21;100.00
21658;BME280;10990;48.174;9.782;2024-01-10T10:52:39;95351.63;;;-3.07;100.00
21658;BME280;10990;48.174;9.782;2024-01-10T10:55:08;95350.03;;;-3.10;100.00
21658;BME280;10990;48.174;9.782;2024-01-10T10:57:34;95355.59;;;-3.00;100.00
21658;BME280;10990;48.174;9.782;2024-01-10T11:00:05;95360.25;;;-2.89;100.00
21658;BME280;10990;48.174;9.782;2024-01-10T11:02:31;95397.06;;;-3.38;100.00
21658;BME280;10990;48.174;9.782;2024-01-10T11:04:58;95378.09;;;-3.02;100.00
21658;BME280;10990;48.174;9.782;2024-01-10T11:07:25;95372.47;;;-2.93;100.00
21658;BME280;10990;48.174;9.782;2024-01-10T11:09:52;95363.44;;;-2.67;100.00
21658;BME280;10990;48.174;9.782;2024-01-10T11:12:30;95382.09;;;-2.95;100.00
21658;BME280;10990;48.174;9.782;2024-01-10T11:15:14;95379.41;;;-2.94;100.00
21658;BME280;10990;48.174;9.782;2024-01-10T11:18:02;95387.56;;;-3.01;100.00
21658;BME280;10990;48.174;9.782;2024-01-10T11:20:54;95355.13;;;-2.39;100.00
21658;BME280;10990;48.174;9.782;2024-01-10T11:23:42;95406.66;;;-3.04;100.00
21658;BME280;10990;48.174;9.782;2024-01-10T11:26:09;95389.63;;;-2.73;100.00
21658;BME280;10990;48.174;9.782;2024-01-10T11:28:37;95384.66;;;-2.60;100.00
21658;BME280;10990;48.174;9.782;2024-01-10T11:31:07;95407.19;;;-2.80;100.00
21658;BME280;10990;48.174;9.782;2024-01-10T11:33:35;95394.25;;;-2.62;100.00
21658;BME280;10990;48.174;9.782;2024-01-10T11:36:09;95383.75;;;-2.42;100.00
21658;BME280;10990;48.174;9.782;2024-01-10T11:38:42;95384.91;;;-2.47;100.00
21658;BME280;10990;48.174;9.782;2024-01-10T11:41:11;95396.25;;;-2.50;100.00
21658;BME280;10990;48.174;9.782;2024-01-10T11:43:37;95413.75;;;-2.73;100.00
21658;BME280;10990;48.174;9.782;2024-01-10T11:46:03;95388.53;;;-2.52;100.00
21658;BME280;10990;48.174;9.782;2024-01-10T11:48:32;95392.50;;;-2.44;100.00
21658;BME280;10990;48.174;9.782;2024-01-10T11:50:58;95385.78;;;-2.14;100.00
21658;BME280;10990;48.174;9.782;2024-01-10T11:53:42;95402.59;;;-2.22;100.00
21658;BME280;10990;48.174;9.782;2024-01-10T11:56:09;95422.44;;;-2.56;100.00
21658;BME280;10990;48.174;9.782;2024-01-10T11:58:53;95436.44;;;-2.78;100.00
21658;BME280;10990;48.174;9.782;2024-01-10T12:01:21;95436.91;;;-2.87;100.00
21658;BME280;10990;48.174;9.782;2024-01-10T12:03:51;95428.22;;;-2.86;100.00
21658;BME280;10990;48.174;9.782;2024-01-10T12:06:18;95409.47;;;-2.56;100.00
21658;BME280;10990;48.174;9.782;2024-01-10T12:08:44;95424.69;;;-2.85;100.00
21658;BME280;10990;48.174;9.782;2024-01-10T12:11:10;95418.41;;;-2.62;100.00
21658;BME280;10990;48.174;9.782;2024-01-10T12:13:36;95419.25;;;-2.79;100.00
21658;BME280;10990;48.174;9.782;2024-01-10T12:16:02;95417.53;;;-2.97;100.00
21658;BME280;10990;48.174;9.782;2024-01-10T12:18:28;95407.88;;;-2.76;100.00
21658;BME280;10990;48.174;9.782;2024-01-10T12:20:56;95406.31;;;-2.79;100.00
21658;BME280;10990;48.174;9.782;2024-01-10T12:23:22;95394.19;;;-2.78;100.00
21658;BME280;10990;48.174;9.782;2024-01-10T12:25:48;95378.66;;;-2.61;100.00
21658;BME280;10990;48.174;9.782;2024-01-10T12:28:16;95379.03;;;-2.68;100.00
21658;BME280;10990;48.174;9.782;2024-01-10T12:30:41;95376.06;;;-2.61;100.00
21658;BME280;10990;48.174;9.782;2024-01-10T12:33:09;95372.88;;;-2.66;100.00
21658;BME280;10990;48.174;9.782;2024-01-10T12:35:35;95380.53;;;-2.82;100.00
21658;BME280;10990;48.174;9.782;2024-01-10T12:38:03;95375.63;;;-2.86;100.00
21658;BME280;10990;48.174;9.782;2024-01-10T12:40:32;95356.00;;;-2.73;100.00
21658;BME280;10990;48.174;9.782;2024-01-10T12:43:02;95345.31;;;-2.50;100.00
21658;BME280;10990;48.174;9.782;2024-01-10T12:45:28;95334.13;;;-2.50;100.00
21658;BME280;10990;48.174;9.782;2024-01-10T12:47:54;95337.00;;;-2.56;100.00
21658;BME280;10990;48.174;9.782;2024-01-10T12:50:19;95332.28;;;-2.65;100.00